sensor_id;sensor_type;location;lat;lon;timestamp;P1;durP1;ratioP1;P2;durP2;ratioP2
1885;SDS011;943;51.568;6.998;2022-08-27T00:02:05;12.43;;;3.33;;
1885;SDS011;943;51.568;6.998;2022-08-27T00:04:34;7.33;;;3.33;;
1885;SDS011;943;51.568;6.998;2022-08-27T00:07:04;7.87;;;3.00;;
1885;SDS011;943;51.568;6.998;2022-08-27T00:09:36;7.80;;;3.00;;
1885;SDS011;943;51.568;6.998;2022-08-27T00:12:09;5.67;;;3.33;;
1885;SDS011;943;51.568;6.998;2022-08-27T00:14:39;9.30;;;2.97;;
1885;SDS011;943;51.568;6.998;2022-08-27T00:17:08;6.27;;;3.30;;
1885;SDS011;943;51.568;6.998;2022-08-27T00:19:38;6.70;;;3.27;;
1885;SDS011;943;51.568;6.998;2022-08-27T00:22:09;5.20;;;3.00;;
1885;SDS011;943;51.568;6.998;2022-08-27T00:24:39;6.70;;;2.90;;
1885;SDS011;943;51.568;6.998;2022-08-27T00:27:14;8.53;;;3.77;;
1885;SDS011;943;51.568;6.998;2022-08-27T00:29:45;8.37;;;3.30;;
1885;SDS011;943;51.568;6.998;2022-08-27T00:32:15;5.63;;;3.13;;
1885;SDS011;943;51.568;6.998;2022-08-27T00:34:43;10.93;;;3.00;;
1885;SDS011;943;51.568;6.998;2022-08-27T00:37:11;8.50;;;3.33;;
1885;SDS011;943;51.568;6.998;2022-08-27T00:39:38;6.50;;;3.00;;
1885;SDS011;943;51.568;6.998;2022-08-27T00:42:06;7.53;;;2.90;;
1885;SDS011;943;51.568;6.998;2022-08-27T00:44:33;8.20;;;3.13;;
1885;SDS011;943;51.568;6.998;2022-08-27T00:47:03;14.50;;;4.83;;
1885;SDS011;943;51.568;6.998;2022-08-27T00:49:44;9.43;;;3.60;;
1885;SDS011;943;51.568;6.998;2022-08-27T00:52:28;8.27;;;3.67;;
1885;SDS011;943;51.568;6.998;2022-08-27T00:55:18;8.90;;;3.00;;
1885;SDS011;943;51.568;6.998;2022-08-27T00:58:49;10.53;;;3.93;;
1885;SDS011;943;51.568;6.998;2022-08-27T01:01:12;9.93;;;3.20;;
1885;SDS011;943;51.568;6.998;2022-08-27T01:03:52;8.30;;;3.37;;
1885;SDS011;943;51.568;6.998;2022-08-27T01:06:27;7.80;;;3.03;;
1885;SDS011;943;51.568;6.998;2022-08-27T01:09:04;6.40;;;3.70;;
1885;SDS011;943;51.568;6.998;2022-08-27T01:11:42;5.93;;;2.90;;
1885;SDS011;943;51.568;6.998;2022-08-27T01:14:13;18.00;;;4.00;;
1885;SDS011;943;51.568;6.998;2022-08-27T01:16:44;8.70;;;3.60;;
1885;SDS011;943;51.568;6.998;2022-08-27T01:25:30;6.53;;;3.03;;
1885;SDS011;943;51.568;6.998;2022-08-27T01:27:59;7.97;;;3.77;;
1885;SDS011;943;51.568;6.998;2022-08-27T01:30:29;6.80;;;3.23;;
1885;SDS011;943;51.568;6.998;2022-08-27T01:32:58;7.70;;;3.30;;
1885;SDS011;943;51.568;6.998;2022-08-27T01:35:25;7.60;;;2.70;;
1885;SDS011;943;51.568;6.998;2022-08-27T01:37:53;6.63;;;2.87;;
1885;SDS011;943;51.568;6.998;2022-08-27T01:40:24;7.50;;;2.93;;
1885;SDS011;943;51.568;6.998;2022-08-27T01:42:53;13.43;;;3.50;;
1885;SDS011;943;51.568;6.998;2022-08-27T01:45:24;5.10;;;2.23;;
1885;SDS011;943;51.568;6.998;2022-08-27T01:47:59;11.27;;;2.70;;
1885;SDS011;943;51.568;6.998;2022-08-27T01:50:30;6.47;;;2.30;;
1885;SDS011;943;51.568;6.998;2022-08-27T01:53:07;7.10;;;2.57;;
1885;SDS011;943;51.568;6.998;2022-08-27T01:55:47;14.20;;;2.40;;
1885;SDS011;943;51.568;6.998;2022-08-27T01:58:19;7.17;;;2.47;;
1885;SDS011;943;51.568;6.998;2022-08-27T02:00:57;9.50;;;2.67;;
1885;SDS011;943;51.568;6.998;2022-08-27T02:03:37;8.73;;;3.07;;
1885;SDS011;943;51.568;6.998;2022-08-27T02:06:08;4.93;;;2.87;;
1885;SDS011;943;51.568;6.998;2022-08-27T02:08:39;9.83;;;3.13;;
1885;SDS011;943;51.568;6.998;2022-08-27T02:11:07;13.83;;;2.57;;
1885;SDS011;943;51.568;6.998;2022-08-27T02:13:35;6.47;;;2.40;;
1885;SDS011;943;51.568;6.998;2022-08-27T02:16:04;6.20;;;2.60;;
1885;SDS011;943;51.568;6.998;2022-08-27T02:18:34;10.67;;;2.70;;
1885;SDS011;943;51.568;6.998;2022-08-27T02:21:06;4.37;;;1.87;;
1885;SDS011;943;51.568;6.998;2022-08-27T02:23:34;5.00;;;2.30;;
1885;SDS011;943;51.568;6.998;2022-08-27T02:26:02;10.23;;;2.00;;
1885;SDS011;943;51.568;6.998;2022-08-27T02:28:30;8.20;;;2.90;;
1885;SDS011;943;51.568;6.998;2022-08-27T02:31:00;12.47;;;2.93;;
1885;SDS011;943;51.568;6.998;2022-08-27T02:33:27;7.30;;;3.10;;
1885;SDS011;943;51.568;6.998;2022-08-27T02:35:56;5.63;;;2.20;;
1885;SDS011;943;51.568;6.998;2022-08-27T02:38:24;6.43;;;2.80;;
1885;SDS011;943;51.568;6.998;2022-08-27T02:40:52;6.80;;;2.37;;
1885;SDS011;943;51.568;6.998;2022-08-27T02:43:20;8.10;;;2.90;;
1885;SDS011;943;51.568;6.998;2022-08-27T02:45:50;12.00;;;2.77;;
1885;SDS011;943;51.568;6.998;2022-08-27T02:48:18;7.43;;;2.67;;
1885;SDS011;943;51.568;6.998;2022-08-27T02:50:46;9.67;;;2.83;;
1885;SDS011;943;51.568;6.998;2022-08-27T02:53:14;11.97;;;3.00;;
1885;SDS011;943;51.568;6.998;2022-08-27T02:55:44;6.53;;;2.33;;
1885;SDS011;943;51.568;6.998;2022-08-27T02:58:13;11.63;;;2.23;;
1885;SDS011;943;51.568;6.998;2022-08-27T03:00:43;5.53;;;2.33;;
1885;SDS011;943;51.568;6.998;2022-08-27T03:03:12;5.20;;;2.50;;
1885;SDS011;943;51.568;6.998;2022-08-27T03:05:41;5.50;;;2.37;;
1885;SDS011;943;51.568;6.998;2022-08-27T03:08:11;6.23;;;2.43;;
1885;SDS011;943;51.568;6.998;2022-08-27T03:10:40;5.00;;;2.43;;
1885;SDS011;943;51.568;6.998;2022-08-27T03:13:07;6.03;;;2.27;;
1885;SDS011;943;51.568;6.998;2022-08-27T03:15:35;7.50;;;2.30;;
1885;SDS011;943;51.568;6.998;2022-08-27T03:18:03;9.20;;;2.40;;
1885;SDS011;943;51.568;6.998;2022-08-27T03:20:48;6.10;;;2.30;;
1885;SDS011;943;51.568;6.998;2022-08-27T03:23:22;6.83;;;2.50;;
1885;SDS011;943;51.568;6.998;2022-08-27T03:25:58;6.63;;;2.70;;
1885;SDS011;943;51.568;6.998;2022-08-27T03:28:36;8.63;;;2.77;;
1885;SDS011;943;51.568;6.998;2022-08-27T03:31:05;5.67;;;2.10;;
1885;SDS011;943;51.568;6.998;2022-08-27T03:33:57;5.77;;;2.80;;
1885;SDS011;943;51.568;6.998;2022-08-27T03:36:32;4.80;;;2.10;;
1885;SDS011;943;51.568;6.998;2022-08-27T03:38:59;7.40;;;2.30;;
1885;SDS011;943;51.568;6.998;2022-08-27T03:41:27;5.77;;;2.37;;
1885;SDS011;943;51.568;6.998;2022-08-27T03:44:15;6.37;;;2.30;;
1885;SDS011;943;51.568;6.998;2022-08-27T03:46:46;3.83;;;2.33;;
1885;SDS011;943;51.568;6.998;2022-08-27T03:49:19;5.27;;;2.33;;
1885;SDS011;943;51.568;6.998;2022-08-27T03:51:49;6.40;;;2.40;;
1885;SDS011;943;51.568;6.998;2022-08-27T03:54:19;5.33;;;2.90;;
1885;SDS011;943;51.568;6.998;2022-08-27T03:56:47;9.20;;;2.77;;
1885;SDS011;943;51.568;6.998;2022-08-27T03:59:15;13.83;;;3.20;;
1885;SDS011;943;51.568;6.998;2022-08-27T04:01:43;4.40;;;2.37;;
1885;SDS011;943;51.568;6.998;2022-08-27T04:04:11;6.20;;;2.60;;
1885;SDS011;943;51.568;6.998;2022-08-27T04:06:39;12.60;;;2.73;;
1885;SDS011;943;51.568;6.998;2022-08-27T04:09:07;4.87;;;2.90;;
1885;SDS011;943;51.568;6.998;2022-08-27T04:11:34;5.03;;;2.67;;
1885;SDS011;943;51.568;6.998;2022-08-27T04:14:03;10.17;;;3.00;;
1885;SDS011;943;51.568;6.998;2022-08-27T04:16:52;7.20;;;2.67;;
1885;SDS011;943;51.568;6.998;2022-08-27T04:19:23;5.70;;;2.80;;
1885;SDS011;943;51.568;6.998;2022-08-27T04:21:59;5.70;;;2.10;;
1885;SDS011;943;51.568;6.998;2022-08-27T04:24:34;6.43;;;2.93;;
1885;SDS011;943;51.568;6.998;2022-08-27T04:27:04;8.10;;;2.80;;
1885;SDS011;943;51.568;6.998;2022-08-27T04:29:32;7.83;;;3.07;;
1885;SDS011;943;51.568;6.998;2022-08-27T04:32:01;5.83;;;2.80;;
1885;SDS011;943;51.568;6.998;2022-08-27T04:34:30;8.10;;;2.73;;
1885;SDS011;943;51.568;6.998;2022-08-27T04:36:58;6.30;;;3.07;;
1885;SDS011;943;51.568;6.998;2022-08-27T04:39:29;6.13;;;3.00;;
1885;SDS011;943;51.568;6.998;2022-08-27T04:41:59;5.80;;;2.53;;
1885;SDS011;943;51.568;6.998;2022-08-27T04:44:30;9.80;;;3.03;;
1885;SDS011;943;51.568;6.998;2022-08-27T04:46:59;10.27;;;3.20;;
1885;SDS011;943;51.568;6.998;2022-08-27T04:49:31;11.70;;;3.37;;
1885;SDS011;943;51.568;6.998;2022-08-27T04:51:59;4.80;;;3.00;;
1885;SDS011;943;51.568;6.998;2022-08-27T04:54:28;5.67;;;2.77;;
1885;SDS011;943;51.568;6.998;2022-08-27T04:56:58;6.80;;;3.47;;
1885;SDS011;943;51.568;6.998;2022-08-27T04:59:30;7.30;;;3.50;;
1885;SDS011;943;51.568;6.998;2022-08-27T05:02:00;9.87;;;3.20;;
1885;SDS011;943;51.568;6.998;2022-08-27T05:04:33;8.10;;;3.00;;
1885;SDS011;943;51.568;6.998;2022-08-27T05:07:05;6.80;;;3.77;;
1885;SDS011;943;51.568;6.998;2022-08-27T05:09:36;4.23;;;2.67;;
1885;SDS011;943;51.568;6.998;2022-08-27T05:12:04;10.07;;;3.47;;
1885;SDS011;943;51.568;6.998;2022-08-27T05:14:33;6.13;;;2.67;;
1885;SDS011;943;51.568;6.998;2022-08-27T05:17:00;7.40;;;3.10;;
1885;SDS011;943;51.568;6.998;2022-08-27T05:19:28;5.60;;;2.90;;
1885;SDS011;943;51.568;6.998;2022-08-27T05:21:56;7.83;;;2.93;;
1885;SDS011;943;51.568;6.998;2022-08-27T05:24:24;6.53;;;2.87;;
1885;SDS011;943;51.568;6.998;2022-08-27T05:26:51;4.97;;;2.90;;
1885;SDS011;943;51.568;6.998;2022-08-27T05:29:19;6.37;;;2.53;;
1885;SDS011;943;51.568;6.998;2022-08-27T05:31:47;6.03;;;2.70;;
1885;SDS011;943;51.568;6.998;2022-08-27T05:34:15;6.30;;;3.00;;
1885;SDS011;943;51.568;6.998;2022-08-27T05:36:47;5.00;;;2.97;;
1885;SDS011;943;51.568;6.998;2022-08-27T05:39:15;10.57;;;3.50;;
1885;SDS011;943;51.568;6.998;2022-08-27T05:41:43;7.33;;;3.20;;
1885;SDS011;943;51.568;6.998;2022-08-27T05:44:10;7.00;;;2.77;;
1885;SDS011;943;51.568;6.998;2022-08-27T05:47:01;6.50;;;3.10;;
1885;SDS011;943;51.568;6.998;2022-08-27T05:49:29;6.13;;;3.13;;
1885;SDS011;943;51.568;6.998;2022-08-27T05:51:57;6.93;;;3.33;;
1885;SDS011;943;51.568;6.998;2022-08-27T05:54:24;6.73;;;3.00;;
1885;SDS011;943;51.568;6.998;2022-08-27T05:56:52;8.47;;;3.00;;
1885;SDS011;943;51.568;6.998;2022-08-27T05:59:19;8.57;;;3.17;;
1885;SDS011;943;51.568;6.998;2022-08-27T06:02:05;5.10;;;3.07;;
1885;SDS011;943;51.568;6.998;2022-08-27T06:04:33;4.70;;;2.70;;
1885;SDS011;943;51.568;6.998;2022-08-27T06:07:02;4.80;;;2.97;;
1885;SDS011;943;51.568;6.998;2022-08-27T06:09:34;6.37;;;3.10;;
1885;SDS011;943;51.568;6.998;2022-08-27T06:12:04;7.60;;;3.30;;
1885;SDS011;943;51.568;6.998;2022-08-27T06:14:34;5.83;;;3.40;;
1885;SDS011;943;51.568;6.998;2022-08-27T06:17:03;9.93;;;3.47;;
1885;SDS011;943;51.568;6.998;2022-08-27T06:19:31;8.03;;;3.00;;
1885;SDS011;943;51.568;6.998;2022-08-27T06:22:10;4.90;;;2.90;;
1885;SDS011;943;51.568;6.998;2022-08-27T06:24:39;8.90;;;3.57;;
1885;SDS011;943;51.568;6.998;2022-08-27T06:27:11;7.20;;;2.60;;
1885;SDS011;943;51.568;6.998;2022-08-27T06:29:45;3.97;;;2.30;;
1885;SDS011;943;51.568;6.998;2022-08-27T06:32:13;9.53;;;3.57;;
1885;SDS011;943;51.568;6.998;2022-08-27T06:34:40;6.30;;;3.07;;
1885;SDS011;943;51.568;6.998;2022-08-27T06:37:08;4.77;;;2.67;;
1885;SDS011;943;51.568;6.998;2022-08-27T06:39:37;8.87;;;2.90;;
1885;SDS011;943;51.568;6.998;2022-08-27T06:42:08;7.70;;;2.83;;
1885;SDS011;943;51.568;6.998;2022-08-27T06:44:39;7.43;;;2.57;;
1885;SDS011;943;51.568;6.998;2022-08-27T06:47:07;7.20;;;2.80;;
1885;SDS011;943;51.568;6.998;2022-08-27T06:49:37;5.33;;;3.03;;
1885;SDS011;943;51.568;6.998;2022-08-27T06:52:11;4.40;;;2.30;;
1885;SDS011;943;51.568;6.998;2022-08-27T06:54:40;7.40;;;2.83;;
1885;SDS011;943;51.568;6.998;2022-08-27T06:57:08;5.43;;;2.60;;
1885;SDS011;943;51.568;6.998;2022-08-27T06:59:35;6.10;;;2.20;;
1885;SDS011;943;51.568;6.998;2022-08-27T07:02:05;5.93;;;2.77;;
1885;SDS011;943;51.568;6.998;2022-08-27T07:04:33;6.53;;;2.60;;
1885;SDS011;943;51.568;6.998;2022-08-27T07:07:01;6.97;;;2.83;;
1885;SDS011;943;51.568;6.998;2022-08-27T07:09:32;6.87;;;3.07;;
1885;SDS011;943;51.568;6.998;2022-08-27T07:12:00;7.20;;;2.70;;
1885;SDS011;943;51.568;6.998;2022-08-27T07:14:28;5.57;;;2.33;;
1885;SDS011;943;51.568;6.998;2022-08-27T07:17:03;8.23;;;2.50;;
1885;SDS011;943;51.568;6.998;2022-08-27T07:19:40;5.97;;;2.17;;
1885;SDS011;943;51.568;6.998;2022-08-27T07:22:09;12.70;;;2.70;;
1885;SDS011;943;51.568;6.998;2022-08-27T07:24:38;5.90;;;2.70;;
1885;SDS011;943;51.568;6.998;2022-08-27T07:27:06;8.30;;;2.60;;
1885;SDS011;943;51.568;6.998;2022-08-27T07:29:34;7.93;;;2.93;;
1885;SDS011;943;51.568;6.998;2022-08-27T07:32:02;7.40;;;2.50;;
1885;SDS011;943;51.568;6.998;2022-08-27T07:34:30;5.10;;;2.50;;
1885;SDS011;943;51.568;6.998;2022-08-27T07:36:58;6.47;;;2.57;;
1885;SDS011;943;51.568;6.998;2022-08-27T07:39:26;6.93;;;2.50;;
1885;SDS011;943;51.568;6.998;2022-08-27T07:41:56;4.60;;;2.33;;
1885;SDS011;943;51.568;6.998;2022-08-27T07:44:42;5.10;;;2.50;;
1885;SDS011;943;51.568;6.998;2022-08-27T07:47:10;6.07;;;2.53;;
1885;SDS011;943;51.568;6.998;2022-08-27T07:49:38;13.60;;;2.53;;
1885;SDS011;943;51.568;6.998;2022-08-27T07:52:06;8.13;;;2.90;;
1885;SDS011;943;51.568;6.998;2022-08-27T07:54:34;8.90;;;2.63;;
1885;SDS011;943;51.568;6.998;2022-08-27T07:57:01;5.73;;;2.50;;
1885;SDS011;943;51.568;6.998;2022-08-27T07:59:30;7.03;;;2.63;;
1885;SDS011;943;51.568;6.998;2022-08-27T08:01:58;4.80;;;2.60;;
1885;SDS011;943;51.568;6.998;2022-08-27T08:04:26;7.63;;;2.77;;
1885;SDS011;943;51.568;6.998;2022-08-27T08:06:54;6.23;;;2.60;;
1885;SDS011;943;51.568;6.998;2022-08-27T08:09:22;4.30;;;2.00;;
1885;SDS011;943;51.568;6.998;2022-08-27T08:11:50;10.60;;;2.53;;
1885;SDS011;943;51.568;6.998;2022-08-27T08:14:19;4.77;;;2.43;;
1885;SDS011;943;51.568;6.998;2022-08-27T08:16:47;5.43;;;2.20;;
1885;SDS011;943;51.568;6.998;2022-08-27T08:19:15;6.63;;;2.07;;
1885;SDS011;943;51.568;6.998;2022-08-27T08:21:43;6.17;;;2.20;;
1885;SDS011;943;51.568;6.998;2022-08-27T08:24:11;3.60;;;1.70;;
1885;SDS011;943;51.568;6.998;2022-08-27T08:26:39;6.07;;;2.20;;
1885;SDS011;943;51.568;6.998;2022-08-27T08:29:07;7.17;;;2.30;;
1885;SDS011;943;51.568;6.998;2022-08-27T08:31:43;5.30;;;2.27;;
1885;SDS011;943;51.568;6.998;2022-08-27T08:34:15;3.27;;;1.83;;
1885;SDS011;943;51.568;6.998;2022-08-27T08:36:45;6.97;;;2.60;;
1885;SDS011;943;51.568;6.998;2022-08-27T08:39:20;9.90;;;2.40;;
1885;SDS011;943;51.568;6.998;2022-08-27T08:41:53;10.90;;;2.57;;
1885;SDS011;943;51.568;6.998;2022-08-27T08:44:28;6.43;;;2.73;;
1885;SDS011;943;51.568;6.998;2022-08-27T08:50:20;4.27;;;2.03;;
1885;SDS011;943;51.568;6.998;2022-08-27T08:53:18;10.73;;;2.57;;
1885;SDS011;943;51.568;6.998;2022-08-27T08:56:00;6.80;;;2.50;;
1885;SDS011;943;51.568;6.998;2022-08-27T08:58:50;8.17;;;3.00;;
1885;SDS011;943;51.568;6.998;2022-08-27T09:01:36;8.30;;;2.20;;
1885;SDS011;943;51.568;6.998;2022-08-27T09:04:04;10.10;;;2.70;;
1885;SDS011;943;51.568;6.998;2022-08-27T09:06:40;6.03;;;2.50;;
1885;SDS011;943;51.568;6.998;2022-08-27T09:12:58;4.87;;;2.20;;
1885;SDS011;943;51.568;6.998;2022-08-27T09:15:33;8.43;;;2.93;;
1885;SDS011;943;51.568;6.998;2022-08-27T09:18:07;8.80;;;2.47;;
1885;SDS011;943;51.568;6.998;2022-08-27T09:20:44;10.00;;;2.40;;
1885;SDS011;943;51.568;6.998;2022-08-27T09:23:36;6.53;;;2.83;;
1885;SDS011;943;51.568;6.998;2022-08-27T09:26:40;11.13;;;2.90;;
1885;SDS011;943;51.568;6.998;2022-08-27T09:29:11;4.17;;;1.93;;
1885;SDS011;943;51.568;6.998;2022-08-27T09:31:57;7.43;;;2.43;;
1885;SDS011;943;51.568;6.998;2022-08-27T09:34:35;6.63;;;2.80;;
1885;SDS011;943;51.568;6.998;2022-08-27T09:37:11;5.30;;;2.60;;
1885;SDS011;943;51.568;6.998;2022-08-27T09:40:20;7.93;;;2.50;;
1885;SDS011;943;51.568;6.998;2022-08-27T09:43:07;5.10;;;2.40;;
1885;SDS011;943;51.568;6.998;2022-08-27T09:45:54;7.10;;;2.40;;
1885;SDS011;943;51.568;6.998;2022-08-27T09:48:42;7.53;;;2.50;;
1885;SDS011;943;51.568;6.998;2022-08-27T09:51:12;7.07;;;2.67;;
1885;SDS011;943;51.568;6.998;2022-08-27T09:53:57;4.23;;;2.20;;
1885;SDS011;943;51.568;6.998;2022-08-27T09:56:30;8.17;;;2.47;;
1885;SDS011;943;51.568;6.998;2022-08-27T09:59:03;4.50;;;2.50;;
1885;SDS011;943;51.568;6.998;2022-08-27T10:01:55;8.20;;;2.40;;
1885;SDS011;943;51.568;6.998;2022-08-27T10:04:51;6.77;;;2.50;;
1885;SDS011;943;51.568;6.998;2022-08-27T10:13:32;4.73;;;2.60;;
1885;SDS011;943;51.568;6.998;2022-08-27T10:23:13;7.47;;;2.80;;
1885;SDS011;943;51.568;6.998;2022-08-27T10:26:07;5.53;;;2.07;;
1885;SDS011;943;51.568;6.998;2022-08-27T10:32:37;4.93;;;1.93;;
1885;SDS011;943;51.568;6.998;2022-08-27T10:35:24;5.10;;;1.67;;
1885;SDS011;943;51.568;6.998;2022-08-27T10:41:24;6.43;;;2.00;;
1885;SDS011;943;51.568;6.998;2022-08-27T10:54:03;2.23;;;0.90;;
1885;SDS011;943;51.568;6.998;2022-08-27T10:57:07;4.70;;;1.60;;
1885;SDS011;943;51.568;6.998;2022-08-27T11:09:20;3.70;;;1.50;;
1885;SDS011;943;51.568;6.998;2022-08-27T11:12:13;3.47;;;1.40;;
1885;SDS011;943;51.568;6.998;2022-08-27T11:14:59;4.13;;;1.30;;
1885;SDS011;943;51.568;6.998;2022-08-27T11:17:57;4.57;;;1.80;;
1885;SDS011;943;51.568;6.998;2022-08-27T11:21:01;12.77;;;1.67;;
1885;SDS011;943;51.568;6.998;2022-08-27T11:23:57;3.73;;;1.57;;
1885;SDS011;943;51.568;6.998;2022-08-27T11:26:39;3.60;;;1.80;;
1885;SDS011;943;51.568;6.998;2022-08-27T11:29:14;4.10;;;1.20;;
1885;SDS011;943;51.568;6.998;2022-08-27T11:43:25;5.50;;;1.50;;
1885;SDS011;943;51.568;6.998;2022-08-27T11:46:02;7.07;;;2.00;;
1885;SDS011;943;51.568;6.998;2022-08-27T11:48:37;6.63;;;1.80;;
1885;SDS011;943;51.568;6.998;2022-08-27T11:51:28;6.77;;;2.13;;
1885;SDS011;943;51.568;6.998;2022-08-27T11:54:09;5.57;;;1.80;;
1885;SDS011;943;51.568;6.998;2022-08-27T11:57:15;4.17;;;2.43;;
1885;SDS011;943;51.568;6.998;2022-08-27T12:05:44;5.07;;;1.80;;
1885;SDS011;943;51.568;6.998;2022-08-27T12:17:04;23.37;;;3.30;;
1885;SDS011;943;51.568;6.998;2022-08-27T12:25:59;8.97;;;1.80;;
1885;SDS011;943;51.568;6.998;2022-08-27T12:29:16;4.60;;;1.97;;
1885;SDS011;943;51.568;6.998;2022-08-27T12:32:29;5.70;;;1.97;;
1885;SDS011;943;51.568;6.998;2022-08-27T12:35:20;6.07;;;1.77;;
1885;SDS011;943;51.568;6.998;2022-08-27T12:38:25;4.07;;;1.80;;
1885;SDS011;943;51.568;6.998;2022-08-27T12:44:11;6.90;;;2.17;;
1885;SDS011;943;51.568;6.998;2022-08-27T12:47:02;7.83;;;1.97;;
1885;SDS011;943;51.568;6.998;2022-08-27T12:49:50;6.60;;;1.70;;
1885;SDS011;943;51.568;6.998;2022-08-27T13:01:52;7.47;;;2.00;;
1885;SDS011;943;51.568;6.998;2022-08-27T13:05:09;5.23;;;1.63;;
1885;SDS011;943;51.568;6.998;2022-08-27T13:07:39;5.63;;;2.03;;
1885;SDS011;943;51.568;6.998;2022-08-27T13:13:11;6.30;;;2.00;;
1885;SDS011;943;51.568;6.998;2022-08-27T13:15:55;5.77;;;1.93;;
1885;SDS011;943;51.568;6.998;2022-08-27T13:18:29;5.53;;;1.83;;
1885;SDS011;943;51.568;6.998;2022-08-27T13:21:04;5.30;;;2.20;;
1885;SDS011;943;51.568;6.998;2022-08-27T13:26:33;4.60;;;1.90;;
1885;SDS011;943;51.568;6.998;2022-08-27T13:29:04;6.33;;;1.83;;
1885;SDS011;943;51.568;6.998;2022-08-27T13:31:34;4.13;;;1.73;;
1885;SDS011;943;51.568;6.998;2022-08-27T13:34:04;6.23;;;2.10;;
1885;SDS011;943;51.568;6.998;2022-08-27T13:36:34;4.83;;;1.80;;
1885;SDS011;943;51.568;6.998;2022-08-27T13:39:35;7.97;;;2.33;;
1885;SDS011;943;51.568;6.998;2022-08-27T13:42:05;5.10;;;1.93;;
1885;SDS011;943;51.568;6.998;2022-08-27T13:44:38;7.27;;;1.70;;
1885;SDS011;943;51.568;6.998;2022-08-27T13:47:15;4.37;;;2.07;;
1885;SDS011;943;51.568;6.998;2022-08-27T13:50:05;4.37;;;1.97;;
1885;SDS011;943;51.568;6.998;2022-08-27T13:52:49;5.03;;;2.33;;
1885;SDS011;943;51.568;6.998;2022-08-27T13:55:46;3.67;;;1.80;;
1885;SDS011;943;51.568;6.998;2022-08-27T13:58:22;4.00;;;2.30;;
1885;SDS011;943;51.568;6.998;2022-08-27T14:01:08;5.27;;;2.13;;
1885;SDS011;943;51.568;6.998;2022-08-27T14:03:56;5.93;;;1.73;;
1885;SDS011;943;51.568;6.998;2022-08-27T14:06:42;6.43;;;2.33;;
1885;SDS011;943;51.568;6.998;2022-08-27T14:09:15;5.63;;;2.10;;
1885;SDS011;943;51.568;6.998;2022-08-27T14:12:05;5.80;;;1.83;;
1885;SDS011;943;51.568;6.998;2022-08-27T14:14:37;4.80;;;2.00;;
1885;SDS011;943;51.568;6.998;2022-08-27T14:17:19;5.33;;;1.40;;
1885;SDS011;943;51.568;6.998;2022-08-27T14:20:04;4.43;;;2.10;;
1885;SDS011;943;51.568;6.998;2022-08-27T14:22:34;9.00;;;2.60;;
1885;SDS011;943;51.568;6.998;2022-08-27T14:25:02;8.27;;;2.47;;
1885;SDS011;943;51.568;6.998;2022-08-27T14:27:33;6.90;;;2.20;;
1885;SDS011;943;51.568;6.998;2022-08-27T14:30:18;5.53;;;1.90;;
1885;SDS011;943;51.568;6.998;2022-08-27T14:32:55;4.53;;;1.77;;
1885;SDS011;943;51.568;6.998;2022-08-27T14:35:30;6.80;;;1.93;;
1885;SDS011;943;51.568;6.998;2022-08-27T14:38:20;7.43;;;1.67;;
1885;SDS011;943;51.568;6.998;2022-08-27T14:40:52;8.80;;;1.97;;
1885;SDS011;943;51.568;6.998;2022-08-27T14:43:20;5.50;;;1.97;;
1885;SDS011;943;51.568;6.998;2022-08-27T14:45:48;7.67;;;2.00;;
1885;SDS011;943;51.568;6.998;2022-08-27T14:48:19;5.20;;;2.20;;
1885;SDS011;943;51.568;6.998;2022-08-27T14:50:55;10.53;;;3.00;;
1885;SDS011;943;51.568;6.998;2022-08-27T14:53:28;4.60;;;1.77;;
1885;SDS011;943;51.568;6.998;2022-08-27T14:55:55;7.00;;;2.47;;
1885;SDS011;943;51.568;6.998;2022-08-27T14:58:26;8.93;;;2.53;;
1885;SDS011;943;51.568;6.998;2022-08-27T15:00:55;4.40;;;1.93;;
1885;SDS011;943;51.568;6.998;2022-08-27T15:03:24;5.80;;;2.00;;
1885;SDS011;943;51.568;6.998;2022-08-27T15:05:52;6.43;;;1.63;;
1885;SDS011;943;51.568;6.998;2022-08-27T15:08:21;6.87;;;2.50;;
1885;SDS011;943;51.568;6.998;2022-08-27T15:10:57;7.40;;;2.13;;
1885;SDS011;943;51.568;6.998;2022-08-27T15:13:25;5.43;;;2.17;;
1885;SDS011;943;51.568;6.998;2022-08-27T15:15:54;7.23;;;2.03;;
1885;SDS011;943;51.568;6.998;2022-08-27T15:18:22;5.10;;;1.67;;
1885;SDS011;943;51.568;6.998;2022-08-27T15:20:50;4.90;;;1.57;;
1885;SDS011;943;51.568;6.998;2022-08-27T15:23:17;7.50;;;2.20;;
1885;SDS011;943;51.568;6.998;2022-08-27T15:25:45;5.70;;;2.20;;
1885;SDS011;943;51.568;6.998;2022-08-27T15:28:13;4.63;;;1.80;;
1885;SDS011;943;51.568;6.998;2022-08-27T15:30:40;6.47;;;1.80;;
1885;SDS011;943;51.568;6.998;2022-08-27T15:33:08;7.10;;;1.73;;
1885;SDS011;943;51.568;6.998;2022-08-27T15:35:36;11.93;;;2.60;;
1885;SDS011;943;51.568;6.998;2022-08-27T15:38:03;3.77;;;1.80;;
1885;SDS011;943;51.568;6.998;2022-08-27T15:40:32;3.77;;;1.90;;
1885;SDS011;943;51.568;6.998;2022-08-27T15:43:03;3.70;;;1.73;;
1885;SDS011;943;51.568;6.998;2022-08-27T15:45:33;5.17;;;2.17;;
1885;SDS011;943;51.568;6.998;2022-08-27T15:48:01;5.37;;;2.00;;
1885;SDS011;943;51.568;6.998;2022-08-27T15:50:30;4.40;;;1.70;;
1885;SDS011;943;51.568;6.998;2022-08-27T15:53:00;4.93;;;2.20;;
1885;SDS011;943;51.568;6.998;2022-08-27T15:55:36;6.37;;;1.93;;
1885;SDS011;943;51.568;6.998;2022-08-27T15:58:08;7.30;;;1.90;;
1885;SDS011;943;51.568;6.998;2022-08-27T16:00:36;5.90;;;2.17;;
1885;SDS011;943;51.568;6.998;2022-08-27T16:03:08;4.00;;;2.00;;
1885;SDS011;943;51.568;6.998;2022-08-27T16:05:42;3.20;;;1.63;;
1885;SDS011;943;51.568;6.998;2022-08-27T16:08:12;4.30;;;1.70;;
1885;SDS011;943;51.568;6.998;2022-08-27T16:10:40;2.63;;;1.47;;
1885;SDS011;943;51.568;6.998;2022-08-27T16:13:08;3.73;;;1.70;;
1885;SDS011;943;51.568;6.998;2022-08-27T16:15:36;5.37;;;1.50;;
1885;SDS011;943;51.568;6.998;2022-08-27T16:18:06;5.70;;;2.03;;
1885;SDS011;943;51.568;6.998;2022-08-27T16:20:36;5.00;;;2.47;;
1885;SDS011;943;51.568;6.998;2022-08-27T16:23:04;4.93;;;2.83;;
1885;SDS011;943;51.568;6.998;2022-08-27T16:25:31;11.33;;;1.70;;
1885;SDS011;943;51.568;6.998;2022-08-27T16:27:59;5.00;;;2.00;;
1885;SDS011;943;51.568;6.998;2022-08-27T16:30:27;3.10;;;1.73;;
1885;SDS011;943;51.568;6.998;2022-08-27T16:32:55;5.93;;;2.20;;
1885;SDS011;943;51.568;6.998;2022-08-27T16:35:23;8.10;;;1.90;;
1885;SDS011;943;51.568;6.998;2022-08-27T16:37:51;5.23;;;1.77;;
1885;SDS011;943;51.568;6.998;2022-08-27T16:40:19;4.60;;;1.80;;
1885;SDS011;943;51.568;6.998;2022-08-27T16:42:48;7.13;;;2.53;;
1885;SDS011;943;51.568;6.998;2022-08-27T16:45:20;8.30;;;2.03;;
1885;SDS011;943;51.568;6.998;2022-08-27T16:47:49;6.00;;;2.00;;
1885;SDS011;943;51.568;6.998;2022-08-27T16:50:36;5.13;;;2.07;;
1885;SDS011;943;51.568;6.998;2022-08-27T16:53:08;3.40;;;1.30;;
1885;SDS011;943;51.568;6.998;2022-08-27T16:55:47;3.90;;;1.90;;
1885;SDS011;943;51.568;6.998;2022-08-27T16:58:17;5.47;;;2.00;;
1885;SDS011;943;51.568;6.998;2022-08-27T17:00:53;4.60;;;1.97;;
1885;SDS011;943;51.568;6.998;2022-08-27T17:03:35;8.03;;;2.17;;
1885;SDS011;943;51.568;6.998;2022-08-27T17:06:33;4.23;;;2.17;;
1885;SDS011;943;51.568;6.998;2022-08-27T17:09:05;6.43;;;2.10;;
1885;SDS011;943;51.568;6.998;2022-08-27T17:11:35;4.77;;;2.07;;
1885;SDS011;943;51.568;6.998;2022-08-27T17:14:08;10.17;;;2.77;;
1885;SDS011;943;51.568;6.998;2022-08-27T17:16:38;4.80;;;2.10;;
1885;SDS011;943;51.568;6.998;2022-08-27T17:19:08;4.27;;;1.77;;
1885;SDS011;943;51.568;6.998;2022-08-27T17:21:42;3.80;;;2.00;;
1885;SDS011;943;51.568;6.998;2022-08-27T17:24:11;6.33;;;1.90;;
1885;SDS011;943;51.568;6.998;2022-08-27T17:26:39;5.83;;;1.90;;
1885;SDS011;943;51.568;6.998;2022-08-27T17:29:07;5.63;;;2.80;;
1885;SDS011;943;51.568;6.998;2022-08-27T17:31:36;5.23;;;1.67;;
1885;SDS011;943;51.568;6.998;2022-08-27T17:34:11;4.00;;;1.60;;
1885;SDS011;943;51.568;6.998;2022-08-27T17:36:49;5.70;;;2.10;;
1885;SDS011;943;51.568;6.998;2022-08-27T17:39:19;6.77;;;1.70;;
1885;SDS011;943;51.568;6.998;2022-08-27T17:41:48;5.23;;;2.33;;
1885;SDS011;943;51.568;6.998;2022-08-27T17:46:57;3.83;;;1.77;;
1885;SDS011;943;51.568;6.998;2022-08-27T17:49:31;4.57;;;1.87;;
1885;SDS011;943;51.568;6.998;2022-08-27T17:52:01;6.53;;;2.90;;
1885;SDS011;943;51.568;6.998;2022-08-27T17:54:40;8.90;;;2.70;;
1885;SDS011;943;51.568;6.998;2022-08-27T17:57:34;6.90;;;2.07;;
1885;SDS011;943;51.568;6.998;2022-08-27T18:00:07;4.17;;;1.97;;